Time;durP1;ratioP1;P1;durP2;ratioP2;P2;SDS_P1;SDS_P2;PMS_P1;PMS_P2;Temp;Humidity;BMP_temperature;BMP_pressure;BME280_temperature;BME280_humidity;BME280_pressure;Samples;Min_cycle;Max_cycle;Signal;HPM_P1;HPM_P2
2021/08/24 00:02:20;;;;;;;0.33;0.33;;;15.70;99.90;;;;;;5071128;28;20186;-82
2021/08/24 00:04:45;;;;;;;0.50;0.20;;;15.70;99.90;;;;;;5069662;28;20199;-79
2021/08/24 00:07:11;;;;;;;0.20;0.20;;;15.60;99.90;;;;;;5062386;28;20190;-81
2021/08/24 00:09:37;;;;;;;0.70;0.30;;;15.60;99.90;;;;;;5070281;28;20227;-82
2021/08/24 00:12:04;;;;;;;0.27;0.27;;;15.60;99.90;;;;;;5070364;28;20195;-82
2021/08/24 00:14:31;;;;;;;0.53;0.53;;;15.60;99.90;;;;;;5072071;28;20678;-81
2021/08/24 00:20:19;;;;;;;0.20;0.20;;;15.60;99.90;;;;;;5061181;28;20219;-82
2021/08/24 00:22:45;;;;;;;0.10;0.10;;;15.60;99.90;;;;;;5053947;28;20216;-82
2021/08/24 00:25:13;;;;;;;0.37;0.37;;;15.50;99.90;;;;;;5050812;28;20244;-82
2021/08/24 00:27:39;;;;;;;0.90;0.30;;;15.50;99.90;;;;;;5063164;28;20184;-84
2021/08/24 00:30:06;;;;;;;0.10;0.10;;;15.50;99.90;;;;;;5058514;28;20231;-83
2021/08/24 00:32:33;;;;;;;0.37;0.37;;;15.40;99.90;;;;;;5067118;28;20218;-81
2021/08/24 00:34:58;;;;;;;0.30;0.30;;;15.40;99.90;;;;;;5070834;28;20194;-82
2021/08/24 00:37:24;;;;;;;0.10;0.10;;;15.30;99.90;;;;;;5067547;28;20704;-82
2021/08/24 00:39:50;;;;;;;0.20;0.20;;;15.40;99.90;;;;;;5066751;28;20229;-81
2021/08/24 00:42:20;;;;;;;0.10;0.10;;;15.30;99.90;;;;;;5068593;28;20228;-83
2021/08/24 00:44:47;;;;;;;1.20;0.20;;;15.30;99.90;;;;;;5059175;28;20270;-83
2021/08/24 00:47:15;;;;;;;0.13;0.13;;;15.30;99.90;;;;;;5064326;28;20190;-82
2021/08/24 00:49:44;;;;;;;2.33;0.30;;;15.30;99.90;;;;;;5080720;28;20301;-82
2021/08/24 00:52:13;;;;;;;0.20;0.20;;;15.20;99.90;;;;;;5070640;28;20190;-82
2021/08/24 00:54:41;;;;;;;1.20;0.53;;;15.20;99.90;;;;;;5071401;28;20181;-83
2021/08/24 00:57:14;;;;;;;0.13;0.13;;;15.20;99.90;;;;;;5069359;28;20267;-81
2021/08/24 00:59:40;;;;;;;0.23;0.23;;;15.20;99.90;;;;;;5068377;28;20670;-82
2021/08/24 01:02:08;;;;;;;0.20;0.20;;;15.10;99.90;;;;;;5059792;28;20225;-82
2021/08/24 01:04:35;;;;;;;0.20;0.20;;;15.20;99.90;;;;;;5070934;28;20189;-82
2021/08/24 01:07:08;;;;;;;0.20;0.20;;;15.20;99.90;;;;;;5068586;28;20190;-81
2021/08/24 01:09:46;;;;;;;0.50;0.50;;;15.10;99.90;;;;;;5069528;28;20224;-82
2021/08/24 01:12:18;;;;;;;0.20;0.20;;;15.10;99.90;;;;;;5069476;28;20700;-82
2021/08/24 01:15:01;;;;;;;0.30;0.30;;;15.10;99.90;;;;;;5066917;28;20252;-82
2021/08/24 01:17:43;;;;;;;0.17;0.17;;;15.10;99.90;;;;;;5069554;28;20200;-82
2021/08/24 01:20:20;;;;;;;0.10;0.10;;;15.10;99.90;;;;;;5072516;28;20220;-83
2021/08/24 01:23:10;;;;;;;0.10;0.10;;;15.10;99.90;;;;;;5070021;28;20274;-82
2021/08/24 01:26:01;;;;;;;0.43;0.43;;;15.00;99.90;;;;;;5069160;28;20196;-82
2021/08/24 01:28:51;;;;;;;0.37;0.37;;;15.00;99.90;;;;;;5061031;28;20203;-85
2021/08/24 01:31:47;;;;;;;0.27;0.27;;;14.90;99.90;;;;;;5062657;28;20209;-85
2021/08/24 01:34:51;;;;;;;0.27;0.20;;;14.90;99.90;;;;;;5071377;28;20188;-82
2021/08/24 01:37:44;;;;;;;0.30;0.30;;;15.00;99.90;;;;;;5069984;28;20181;-81
2021/08/24 01:40:29;;;;;;;1.40;0.23;;;14.90;99.90;;;;;;5064597;28;20204;-81
2021/08/24 01:42:57;;;;;;;0.20;0.20;;;14.90;99.90;;;;;;5099169;28;20189;-81
2021/08/24 01:45:30;;;;;;;0.70;0.20;;;14.90;99.90;;;;;;5069404;28;20211;-81
2021/08/24 01:48:12;;;;;;;0.40;0.40;;;14.80;99.90;;;;;;5074600;28;20761;-82
2021/08/24 01:51:06;;;;;;;0.20;0.20;;;14.80;99.90;;;;;;5072373;28;20203;-81
2021/08/24 01:53:42;;;;;;;0.13;0.13;;;14.80;99.90;;;;;;5073621;28;20178;-81
2021/08/24 01:56:13;;;;;;;0.20;0.20;;;14.70;99.90;;;;;;5063388;28;20198;-82
2021/08/24 01:58:53;;;;;;;0.77;0.53;;;14.70;99.90;;;;;;5075655;28;20184;-82
2021/08/24 02:01:23;;;;;;;0.30;0.30;;;14.70;99.90;;;;;;5074292;28;20235;-81
2021/08/24 02:03:53;;;;;;;0.00;0.00;;;14.60;99.90;;;;;;5075723;28;20184;-82
2021/08/24 02:06:29;;;;;;;0.27;0.20;;;14.60;99.90;;;;;;5075223;28;20185;-82
2021/08/24 02:08:57;;;;;;;1.20;0.30;;;14.60;99.90;;;;;;5063469;28;20217;-81
2021/08/24 02:11:27;;;;;;;2.10;2.00;;;14.60;99.90;;;;;;5059958;28;20197;-83
2021/08/24 02:13:53;;;;;;;0.40;0.23;;;14.60;99.90;;;;;;5068873;28;20190;-83
2021/08/24 02:16:24;;;;;;;0.10;0.10;;;14.50;99.90;;;;;;5063375;28;20208;-82
2021/08/24 02:19:15;;;;;;;0.23;0.23;;;14.50;99.90;;;;;;5060691;28;20669;-83
2021/08/24 02:21:50;;;;;;;0.10;0.10;;;14.40;99.90;;;;;;5055422;28;20213;-83
2021/08/24 02:24:20;;;;;;;0.20;0.20;;;14.40;99.90;;;;;;5062208;28;20201;-83
2021/08/24 02:26:48;;;;;;;0.10;0.10;;;14.40;99.90;;;;;;5058614;28;20189;-82
2021/08/24 02:29:14;;;;;;;0.20;0.20;;;14.30;99.90;;;;;;5060630;28;20205;-82
2021/08/24 02:31:49;;;;;;;0.40;0.40;;;14.30;99.90;;;;;;5065284;28;20582;-83
2021/08/24 02:34:39;;;;;;;0.10;0.10;;;14.30;99.90;;;;;;5066084;28;20554;-82
2021/08/24 02:37:20;;;;;;;0.40;0.40;;;14.30;99.90;;;;;;5070345;28;20181;-82
2021/08/24 02:39:55;;;;;;;0.10;0.10;;;14.30;99.90;;;;;;5062072;28;20178;-83
2021/08/24 02:42:32;;;;;;;0.73;0.50;;;14.20;99.90;;;;;;5081037;28;20566;-82
2021/08/24 02:45:13;;;;;;;0.10;0.10;;;14.20;99.90;;;;;;5067131;28;20181;-82
2021/08/24 02:47:40;;;;;;;0.93;0.53;;;14.10;99.90;;;;;;5069813;28;20184;-83
2021/08/24 02:50:09;;;;;;;1.10;0.30;;;14.10;99.90;;;;;;5066925;28;20239;-82
2021/08/24 02:52:36;;;;;;;0.10;0.10;;;14.10;99.90;;;;;;5069359;28;20737;-83
2021/08/24 02:55:03;;;;;;;0.10;0.10;;;14.10;99.90;;;;;;5058218;28;20252;-82
2021/08/24 02:57:28;;;;;;;0.63;0.20;;;14.10;99.90;;;;;;5068704;28;20192;-82
2021/08/24 02:59:54;;;;;;;0.10;0.10;;;14.10;99.90;;;;;;5065490;28;20185;-82
2021/08/24 03:02:19;;;;;;;0.67;0.43;;;14.00;99.90;;;;;;5060004;28;20217;-83
2021/08/24 03:04:45;;;;;;;0.10;0.10;;;14.00;99.90;;;;;;5067172;28;20295;-83
2021/08/24 03:07:25;;;;;;;0.17;0.17;;;14.00;99.90;;;;;;5065513;28;20257;-83
2021/08/24 03:09:52;;;;;;;0.20;0.20;;;14.00;99.90;;;;;;5068554;28;20208;-83
2021/08/24 03:12:25;;;;;;;0.10;0.10;;;14.00;99.90;;;;;;5070817;28;20191;-81
2021/08/24 03:14:56;;;;;;;0.47;0.40;;;14.00;99.90;;;;;;5063667;28;20184;-81
2021/08/24 03:17:33;;;;;;;0.27;0.27;;;14.00;99.90;;;;;;5081554;28;20188;-82
2021/08/24 03:20:03;;;;;;;0.20;0.20;;;14.00;99.90;;;;;;5059610;28;20209;-82
2021/08/24 03:22:29;;;;;;;0.10;0.10;;;13.90;99.90;;;;;;5068710;28;20242;-83
2021/08/24 03:24:55;;;;;;;0.13;0.13;;;13.90;99.90;;;;;;5064420;28;20211;-81
2021/08/24 03:27:21;;;;;;;0.40;0.40;;;13.90;99.90;;;;;;5068841;28;20186;-82
2021/08/24 03:30:09;;;;;;;0.20;0.13;;;13.90;99.90;;;;;;5066248;28;20261;-82
2021/08/24 03:32:39;;;;;;;0.20;0.20;;;13.90;99.90;;;;;;5063455;28;20203;-82
2021/08/24 03:35:06;;;;;;;0.10;0.10;;;13.90;99.90;;;;;;5061759;28;20250;-82
2021/08/24 03:37:31;;;;;;;0.20;0.20;;;13.90;99.90;;;;;;5063634;28;20277;-83
2021/08/24 03:39:57;;;;;;;0.20;0.20;;;13.80;99.90;;;;;;5054857;28;20272;-83
2021/08/24 03:42:22;;;;;;;0.50;0.30;;;13.80;99.90;;;;;;5080698;28;20223;-83
2021/08/24 03:44:48;;;;;;;0.20;0.20;;;13.70;99.90;;;;;;5068907;28;21175;-83
2021/08/24 03:47:14;;;;;;;0.30;0.30;;;13.70;99.90;;;;;;5060714;28;20227;-82
2021/08/24 03:49:40;;;;;;;0.20;0.20;;;13.70;99.90;;;;;;5064666;28;20623;-82
2021/08/24 03:52:06;;;;;;;0.53;0.47;;;13.70;99.90;;;;;;5068750;28;20271;-82
2021/08/24 03:54:32;;;;;;;0.13;0.13;;;13.60;99.90;;;;;;5057471;28;20178;-82
2021/08/24 03:56:58;;;;;;;6.40;0.43;;;13.70;99.90;;;;;;5061461;28;20522;-83
2021/08/24 03:59:23;;;;;;;1.70;0.30;;;13.70;99.90;;;;;;5061187;28;20183;-82
2021/08/24 04:01:49;;;;;;;0.33;0.20;;;13.60;99.90;;;;;;5067114;28;20228;-82
2021/08/24 04:04:15;;;;;;;0.10;0.10;;;13.60;99.90;;;;;;5057688;28;20196;-81
2021/08/24 04:06:41;;;;;;;0.27;0.27;;;13.60;99.90;;;;;;5068406;28;20563;-83
2021/08/24 04:09:07;;;;;;;0.13;0.13;;;13.60;99.90;;;;;;5055331;28;20220;-82
2021/08/24 04:11:32;;;;;;;0.10;0.10;;;13.50;99.90;;;;;;5060748;28;20348;-81
2021/08/24 04:13:58;;;;;;;0.10;0.10;;;13.50;99.90;;;;;;5109828;28;20192;-83
2021/08/24 04:16:25;;;;;;;0.23;0.20;;;13.50;99.90;;;;;;5070307;28;20224;-82
2021/08/24 04:18:50;;;;;;;0.20;0.20;;;13.50;99.90;;;;;;5062661;28;20271;-82
2021/08/24 04:21:17;;;;;;;0.10;0.10;;;13.40;99.90;;;;;;5060108;28;20201;-83
2021/08/24 04:23:44;;;;;;;0.10;0.10;;;13.40;99.90;;;;;;5067815;28;20191;-83
2021/08/24 04:26:10;;;;;;;0.30;0.30;;;13.40;99.90;;;;;;5062272;28;20224;-82
2021/08/24 04:28:36;;;;;;;0.10;0.10;;;13.40;99.90;;;;;;5067913;28;20236;-82
2021/08/24 04:31:04;;;;;;;0.20;0.20;;;13.40;99.90;;;;;;5065134;28;20280;-80
2021/08/24 04:33:30;;;;;;;0.40;0.20;;;13.40;99.90;;;;;;5060460;28;20187;-81
2021/08/24 04:35:56;;;;;;;0.10;0.10;;;13.50;99.90;;;;;;5070512;28;20177;-82
2021/08/24 04:38:22;;;;;;;0.10;0.10;;;13.50;99.90;;;;;;5057665;28;20268;-82
2021/08/24 04:40:48;;;;;;;0.10;0.10;;;13.50;99.90;;;;;;5072987;28;20227;-81
2021/08/24 04:43:14;;;;;;;0.10;0.10;;;13.60;99.90;;;;;;5061234;28;20178;-81
2021/08/24 04:45:40;;;;;;;0.10;0.10;;;13.60;99.90;;;;;;5068748;28;20184;-83
2021/08/24 04:48:05;;;;;;;0.10;0.10;;;13.60;99.90;;;;;;5072874;28;20190;-85
2021/08/24 04:50:31;;;;;;;0.23;0.23;;;13.70;99.90;;;;;;5083921;28;20212;-85
2021/08/24 04:52:57;;;;;;;0.20;0.20;;;13.70;99.90;;;;;;5065539;28;20188;-86
2021/08/24 04:55:23;;;;;;;0.20;0.20;;;13.70;99.90;;;;;;5074163;28;20212;-81
2021/08/24 04:57:48;;;;;;;0.20;0.20;;;13.70;99.90;;;;;;5074174;28;20212;-81
2021/08/24 05:00:14;;;;;;;0.07;0.07;;;13.70;99.90;;;;;;5074136;28;20692;-82
2021/08/24 05:02:40;;;;;;;0.30;0.30;;;13.70;99.90;;;;;;5077351;28;20173;-82
2021/08/24 05:05:06;;;;;;;0.53;0.27;;;13.70;99.90;;;;;;5062760;28;20192;-82
2021/08/24 05:07:32;;;;;;;0.50;0.20;;;13.70;99.90;;;;;;5073849;28;20652;-82
2021/08/24 05:09:57;;;;;;;0.20;0.20;;;13.80;99.90;;;;;;5068736;28;20208;-85
2021/08/24 05:12:23;;;;;;;0.50;0.50;;;13.80;99.90;;;;;;5054246;28;20186;-85
2021/08/24 05:14:48;;;;;;;0.13;0.13;;;13.90;99.90;;;;;;5063433;28;20203;-85
2021/08/24 05:17:14;;;;;;;0.10;0.10;;;13.90;99.90;;;;;;5072925;28;20242;-84
2021/08/24 05:19:39;;;;;;;0.30;0.30;;;14.00;99.90;;;;;;5077141;28;20188;-84
2021/08/24 05:22:05;;;;;;;9.20;0.73;;;14.00;99.90;;;;;;5070844;28;20250;-85
2021/08/24 05:24:34;;;;;;;1.60;1.20;;;14.00;99.90;;;;;;5066405;28;20208;-83
2021/08/24 05:26:59;;;;;;;0.10;0.10;;;14.10;99.90;;;;;;5063437;28;21831;-85
2021/08/24 05:29:25;;;;;;;0.10;0.10;;;14.10;99.90;;;;;;5061438;28;20212;-83
2021/08/24 05:31:50;;;;;;;0.10;0.10;;;14.20;99.90;;;;;;5069803;28;20205;-84
2021/08/24 05:34:16;;;;;;;0.00;0.00;;;14.30;99.90;;;;;;5066283;28;20252;-84
2021/08/24 05:36:41;;;;;;;0.17;0.10;;;14.30;99.90;;;;;;5069659;28;20646;-83
2021/08/24 05:39:07;;;;;;;0.30;0.30;;;14.30;99.90;;;;;;5066609;28;20182;-81
2021/08/24 05:41:32;;;;;;;0.63;0.30;;;14.40;99.90;;;;;;5070345;28;20235;-81
2021/08/24 05:43:58;;;;;;;0.20;0.20;;;14.50;99.90;;;;;;5069542;28;20190;-81
2021/08/24 05:46:23;;;;;;;0.27;0.27;;;14.40;99.90;;;;;;5071696;28;20223;-82
2021/08/24 05:48:49;;;;;;;0.40;0.27;;;14.50;99.90;;;;;;5068496;28;20214;-81
2021/08/24 05:51:20;;;;;;;0.30;0.30;;;14.60;99.90;;;;;;5062459;28;20209;-82
2021/08/24 05:53:46;;;;;;;0.10;0.10;;;14.60;99.90;;;;;;5067297;28;20269;-81
2021/08/24 05:56:16;;;;;;;0.23;0.23;;;14.70;99.90;;;;;;5065265;28;20266;-81
2021/08/24 05:58:42;;;;;;;0.30;0.30;;;14.70;99.90;;;;;;5083488;28;20681;-83
2021/08/24 06:01:09;;;;;;;0.30;0.30;;;14.80;99.90;;;;;;5044824;28;20223;-84
2021/08/24 06:03:37;;;;;;;1.60;1.20;;;14.90;99.90;;;;;;5063331;28;20200;-80
2021/08/24 06:06:04;;;;;;;0.20;0.20;;;14.90;99.90;;;;;;5050657;28;20691;-82
2021/08/24 06:08:29;;;;;;;0.43;0.37;;;15.00;99.90;;;;;;5057965;28;20706;-82
2021/08/24 06:10:55;;;;;;;0.10;0.10;;;15.10;99.90;;;;;;5064496;28;20201;-82
2021/08/24 06:13:20;;;;;;;0.30;0.30;;;15.10;99.90;;;;;;5064995;28;20185;-81
2021/08/24 06:15:46;;;;;;;0.10;0.10;;;15.10;99.90;;;;;;5059881;28;20194;-83
2021/08/24 06:18:11;;;;;;;0.10;0.10;;;15.20;99.90;;;;;;5066538;28;20197;-82
2021/08/24 06:20:37;;;;;;;0.73;0.13;;;15.30;99.90;;;;;;5067020;28;20221;-82
2021/08/24 06:23:03;;;;;;;0.10;0.10;;;15.40;99.90;;;;;;5070234;28;20197;-82
2021/08/24 06:25:29;;;;;;;0.63;0.27;;;15.40;99.90;;;;;;5063388;28;20289;-82
2021/08/24 06:27:54;;;;;;;0.23;0.23;;;15.40;99.90;;;;;;5062452;28;20190;-81
2021/08/24 06:30:20;;;;;;;0.87;0.47;;;15.40;99.90;;;;;;5068153;28;20284;-82
2021/08/24 06:32:50;;;;;;;0.10;0.10;;;15.50;99.90;;;;;;5066827;28;20206;-82
2021/08/24 06:35:16;;;;;;;0.20;0.20;;;15.70;99.90;;;;;;5071456;28;20210;-82
2021/08/24 06:37:42;;;;;;;0.27;0.27;;;15.80;99.90;;;;;;5068753;28;20235;-82
2021/08/24 06:40:09;;;;;;;0.20;0.20;;;15.90;99.90;;;;;;5072086;28;20214;-82
2021/08/24 06:42:48;;;;;;;0.10;0.10;;;15.90;99.90;;;;;;5091883;28;20294;-81
2021/08/24 06:45:27;;;;;;;0.27;0.27;;;16.00;99.90;;;;;;5069591;28;20266;-82
2021/08/24 06:47:53;;;;;;;1.60;1.23;;;16.10;99.90;;;;;;5070249;28;20196;-82
2021/08/24 06:50:20;;;;;;;0.30;0.30;;;16.20;99.90;;;;;;5078771;28;20207;-82
2021/08/24 06:52:46;;;;;;;0.50;0.50;;;16.30;99.90;;;;;;5073550;28;20191;-83
2021/08/24 06:55:12;;;;;;;0.20;0.20;;;16.30;99.90;;;;;;5071522;28;20190;-82
2021/08/24 06:57:39;;;;;;;0.47;0.47;;;16.30;99.90;;;;;;5066659;28;20249;-82
2021/08/24 07:00:07;;;;;;;0.70;0.33;;;16.30;99.90;;;;;;5068956;28;20279;-82
2021/08/24 07:02:32;;;;;;;0.20;0.20;;;16.30;99.90;;;;;;5068504;28;20675;-82
2021/08/24 07:04:58;;;;;;;0.10;0.10;;;16.60;99.90;;;;;;5059426;28;20195;-83
2021/08/24 07:07:24;;;;;;;0.33;0.33;;;16.60;99.90;;;;;;5080508;28;20690;-82
2021/08/24 07:09:51;;;;;;;0.20;0.20;;;16.40;99.90;;;;;;5065815;28;20209;-82
2021/08/24 07:12:17;;;;;;;0.30;0.30;;;16.40;99.90;;;;;;5066841;28;20669;-81
2021/08/24 07:14:42;;;;;;;0.87;0.40;;;16.40;99.90;;;;;;5070179;28;20261;-82
2021/08/24 07:17:08;;;;;;;1.43;0.70;;;16.30;99.90;;;;;;5078524;28;20252;-82
2021/08/24 07:19:33;;;;;;;0.47;0.47;;;16.30;99.90;;;;;;5072076;28;20188;-82
2021/08/24 07:22:01;;;;;;;0.40;0.33;;;16.30;99.90;;;;;;5072012;28;20227;-82
2021/08/24 07:24:26;;;;;;;0.30;0.30;;;16.40;99.90;;;;;;5077796;28;20199;-82
2021/08/24 07:26:53;;;;;;;0.30;0.30;;;16.50;99.90;;;;;;5070861;28;20737;-82
2021/08/24 07:29:19;;;;;;;0.23;0.23;;;16.60;99.90;;;;;;5064829;28;20690;-80
2021/08/24 07:31:45;;;;;;;0.20;0.20;;;16.70;99.90;;;;;;5063146;28;20210;-83
2021/08/24 07:34:11;;;;;;;0.20;0.20;;;16.80;99.90;;;;;;5066781;28;20185;-82
2021/08/24 07:36:36;;;;;;;3.27;0.50;;;17.00;99.90;;;;;;5064424;28;20279;-83
2021/08/24 07:39:04;;;;;;;0.40;0.37;;;17.10;99.90;;;;;;5050643;28;20757;-83
2021/08/24 07:41:29;;;;;;;0.13;0.13;;;17.20;99.90;;;;;;5067846;28;20219;-83
2021/08/24 07:43:55;;;;;;;0.20;0.20;;;17.10;99.90;;;;;;5073062;28;20183;-82
2021/08/24 07:46:20;;;;;;;0.27;0.27;;;17.50;99.90;;;;;;5063752;28;20192;-82
2021/08/24 07:48:46;;;;;;;0.37;0.37;;;17.70;99.90;;;;;;5065393;28;20208;-81
2021/08/24 07:51:12;;;;;;;0.13;0.13;;;17.50;99.90;;;;;;5066561;28;20554;-82
2021/08/24 07:53:38;;;;;;;0.43;0.43;;;17.70;99.90;;;;;;5071633;28;20188;-83
2021/08/24 07:56:06;;;;;;;0.30;0.30;;;17.60;99.90;;;;;;5064572;28;20270;-82
2021/08/24 07:58:31;;;;;;;0.17;0.17;;;17.90;99.90;;;;;;5076548;28;20956;-83
2021/08/24 08:00:57;;;;;;;0.30;0.30;;;17.90;99.90;;;;;;5071775;28;20203;-83
2021/08/24 08:03:22;;;;;;;0.40;0.40;;;18.00;99.90;;;;;;5076184;28;20193;-82
2021/08/24 08:05:48;;;;;;;0.10;0.10;;;18.40;99.90;;;;;;5051753;28;20731;-83
2021/08/24 08:08:14;;;;;;;0.73;0.50;;;18.50;99.90;;;;;;5061192;28;20676;-82
2021/08/24 08:10:40;;;;;;;0.57;0.40;;;18.20;99.90;;;;;;5066762;28;20200;-82
2021/08/24 08:13:06;;;;;;;5.47;0.40;;;17.90;99.90;;;;;;5091252;28;20247;-82
2021/08/24 08:15:33;;;;;;;0.40;0.40;;;18.00;99.90;;;;;;5069315;28;20195;-83
2021/08/24 08:18:04;;;;;;;0.20;0.20;;;18.20;99.90;;;;;;5071652;28;20189;-80
2021/08/24 08:20:31;;;;;;;0.20;0.20;;;18.30;99.90;;;;;;5072923;28;20257;-82
2021/08/24 08:22:58;;;;;;;0.30;0.30;;;18.40;99.90;;;;;;5069690;28;20234;-82
2021/08/24 08:25:24;;;;;;;0.50;0.43;;;18.10;99.90;;;;;;5058393;28;20193;-82
2021/08/24 08:27:49;;;;;;;0.13;0.13;;;18.10;99.90;;;;;;5069234;28;20246;-82
2021/08/24 08:30:15;;;;;;;0.20;0.20;;;18.10;99.90;;;;;;5074381;28;20224;-80
2021/08/24 08:32:43;;;;;;;0.30;0.30;;;18.10;99.90;;;;;;5080574;28;20192;-82
2021/08/24 08:35:11;;;;;;;0.30;0.13;;;18.20;99.90;;;;;;5069991;28;20185;-83
2021/08/24 08:37:37;;;;;;;0.40;0.40;;;18.40;99.90;;;;;;5072245;28;20566;-82
2021/08/24 08:40:07;;;;;;;0.60;0.60;;;18.40;99.90;;;;;;5073458;28;20241;-82
2021/08/24 08:42:57;;;;;;;0.30;0.30;;;18.80;99.90;;;;;;5067918;28;20266;-83
2021/08/24 08:45:36;;;;;;;0.53;0.27;;;18.60;99.90;;;;;;5071278;28;20445;-82
2021/08/24 08:48:12;;;;;;;0.43;0.43;;;18.30;99.90;;;;;;5072269;28;20189;-82
2021/08/24 08:50:55;;;;;;;0.67;0.50;;;18.20;99.90;;;;;;5077844;28;20201;-81
2021/08/24 08:53:37;;;;;;;0.17;0.17;;;18.40;99.90;;;;;;5071144;28;20239;-82
2021/08/24 08:56:31;;;;;;;0.40;0.40;;;18.50;99.90;;;;;;5069069;28;20187;-82
2021/08/24 08:59:14;;;;;;;0.53;0.20;;;18.40;99.90;;;;;;5063811;28;20192;-82
2021/08/24 09:01:59;;;;;;;0.50;0.40;;;18.40;99.90;;;;;;5070902;28;20677;-83
2021/08/24 09:04:38;;;;;;;0.23;0.23;;;18.50;99.90;;;;;;5052478;28;20186;-80
2021/08/24 09:07:16;;;;;;;0.10;0.10;;;19.00;99.90;;;;;;5089519;28;20578;-80
2021/08/24 09:09:42;;;;;;;0.50;0.50;;;19.00;99.90;;;;;;5070899;28;20213;-82
2021/08/24 09:12:10;;;;;;;0.30;0.30;;;19.60;99.90;;;;;;5056044;28;20208;-83
2021/08/24 09:14:39;;;;;;;0.20;0.20;;;19.40;99.90;;;;;;5068923;28;20638;-83
2021/08/24 09:17:13;;;;;;;1.27;0.60;;;19.10;99.90;;;;;;5063513;28;20184;-83
2021/08/24 09:19:51;;;;;;;0.53;0.10;;;19.10;99.90;;;;;;5064247;28;20179;-83
2021/08/24 09:22:18;;;;;;;1.37;0.30;;;18.80;99.90;;;;;;5072305;28;20747;-81
2021/08/24 09:24:45;;;;;;;0.77;0.47;;;19.00;99.90;;;;;;5070288;28;20205;-83
2021/08/24 09:27:48;;;;;;;0.50;0.50;;;19.40;99.90;;;;;;5068197;28;20189;-83
2021/08/24 09:30:15;;;;;;;0.20;0.20;;;19.50;99.90;;;;;;5062616;28;20228;-84
2021/08/24 09:32:41;;;;;;;0.17;0.17;;;19.10;99.90;;;;;;5075336;28;20226;-85
2021/08/24 09:35:28;;;;;;;1.73;0.60;;;19.40;99.90;;;;;;5069166;28;20188;-82
2021/08/24 09:37:58;;;;;;;0.40;0.40;;;19.30;99.90;;;;;;5077804;28;20177;-83
2021/08/24 09:40:35;;;;;;;0.47;0.47;;;19.90;99.90;;;;;;5073728;28;20584;-83
2021/08/24 09:43:19;;;;;;;0.87;0.60;;;20.40;99.90;;;;;;5073275;28;20177;-80
2021/08/24 09:45:45;;;;;;;0.20;0.20;;;20.50;99.90;;;;;;5058367;28;20181;-83
2021/08/24 09:48:14;;;;;;;0.20;0.20;;;20.40;99.90;;;;;;5062882;28;20230;-82
2021/08/24 09:50:43;;;;;;;3.60;0.57;;;20.60;99.90;;;;;;5066720;28;20267;-82
2021/08/24 09:53:31;;;;;;;0.63;0.40;;;21.10;99.90;;;;;;5066692;28;20177;-82
2021/08/24 09:55:57;;;;;;;0.37;0.37;;;21.60;99.90;;;;;;5063677;28;20214;-82
2021/08/24 09:58:46;;;;;;;0.23;0.23;;;21.30;99.90;;;;;;5070715;28;20235;-82
2021/08/24 10:01:14;;;;;;;0.20;0.20;;;21.10;99.90;;;;;;5063024;28;20200;-82
2021/08/24 10:04:02;;;;;;;0.50;0.50;;;21.50;99.90;;;;;;5071501;28;20189;-82
2021/08/24 10:06:51;;;;;;;0.33;0.23;;;21.70;99.90;;;;;;5061368;28;20185;-82
2021/08/24 10:09:28;;;;;;;0.27;0.27;;;21.30;99.90;;;;;;5071834;28;20216;-82
2021/08/24 10:12:13;;;;;;;0.63;0.63;;;21.50;99.90;;;;;;5097550;28;20208;-82
2021/08/24 10:14:38;;;;;;;0.43;0.43;;;21.60;99.90;;;;;;5062012;28;20178;-82
2021/08/24 10:17:24;;;;;;;0.27;0.27;;;21.40;99.90;;;;;;5062465;28;20181;-81
2021/08/24 10:19:51;;;;;;;4.13;0.67;;;21.10;99.90;;;;;;5070522;28;20181;-82
2021/08/24 10:22:29;;;;;;;0.60;0.53;;;21.00;99.90;;;;;;5062952;28;20200;-82
2021/08/24 10:25:06;;;;;;;1.60;1.13;;;21.30;99.90;;;;;;5098452;28;20196;-82
2021/08/24 10:27:36;;;;;;;0.23;0.23;;;21.10;99.90;;;;;;5066909;28;20182;-82
2021/08/24 10:30:16;;;;;;;0.50;0.50;;;21.50;99.90;;;;;;5064696;28;20215;-81
2021/08/24 10:32:54;;;;;;;0.60;0.60;;;22.00;99.90;;;;;;5056639;28;20174;-82
2021/08/24 10:35:26;;;;;;;5.83;0.50;;;21.10;99.90;;;;;;5080118;28;20555;-82
2021/08/24 10:37:52;;;;;;;0.20;0.20;;;20.80;99.90;;;;;;5059624;28;20177;-82
2021/08/24 10:40:29;;;;;;;0.33;0.33;;;21.30;99.90;;;;;;5064270;28;20204;-81
2021/08/24 10:43:24;;;;;;;0.60;0.60;;;21.20;99.90;;;;;;5064669;28;20189;-83
2021/08/24 10:46:04;;;;;;;0.23;0.23;;;20.90;99.90;;;;;;5061159;28;20250;-83
2021/08/24 10:48:33;;;;;;;0.30;0.30;;;20.90;99.90;;;;;;5059964;28;20205;-82
2021/08/24 10:51:25;;;;;;;0.47;0.43;;;20.70;99.90;;;;;;5070828;28;20253;-82
2021/08/24 10:54:18;;;;;;;0.70;0.70;;;21.20;99.90;;;;;;5065758;28;20185;-83
2021/08/24 10:57:09;;;;;;;1.30;0.40;;;21.40;99.90;;;;;;5067990;28;20181;-83
2021/08/24 10:59:48;;;;;;;1.13;0.50;;;20.90;99.90;;;;;;5096064;28;20192;-80
2021/08/24 11:02:25;;;;;;;0.43;0.37;;;21.50;99.90;;;;;;5056157;28;20190;-82
2021/08/24 11:05:08;;;;;;;0.97;0.53;;;21.50;99.90;;;;;;5066275;28;20189;-82
2021/08/24 11:08:03;;;;;;;0.17;0.17;;;21.40;99.90;;;;;;5069643;28;20231;-82
2021/08/24 11:10:47;;;;;;;0.47;0.40;;;22.10;99.90;;;;;;5065917;28;20212;-83
2021/08/24 11:13:52;;;;;;;1.13;1.13;;;22.10;99.90;;;;;;5061305;28;20193;-81
2021/08/24 11:16:36;;;;;;;0.40;0.40;;;22.60;99.90;;;;;;5060587;28;20199;-83
2021/08/24 11:19:32;;;;;;;0.60;0.50;;;23.30;99.90;;;;;;5095246;28;20657;-81
2021/08/24 11:22:22;;;;;;;0.23;0.23;;;22.80;99.90;;;;;;5063517;28;20753;-81
2021/08/24 11:25:13;;;;;;;0.40;0.40;;;22.80;99.90;;;;;;5039545;28;20213;-83
2021/08/24 11:28:05;;;;;;;0.50;0.50;;;22.90;99.90;;;;;;5067166;28;20185;-81
2021/08/24 11:30:45;;;;;;;0.83;0.83;;;22.60;99.90;;;;;;5065278;28;20362;-82
2021/08/24 11:33:19;;;;;;;0.50;0.50;;;22.00;99.90;;;;;;5063870;28;20180;-83
2021/08/24 11:35:56;;;;;;;0.77;0.50;;;22.20;99.90;;;;;;5065121;28;20271;-83
2021/08/24 11:38:28;;;;;;;0.57;0.30;;;22.70;99.90;;;;;;5068256;28;20267;-82
2021/08/24 11:41:00;;;;;;;0.40;0.40;;;22.80;99.90;;;;;;5059800;28;20731;-83
2021/08/24 11:43:34;;;;;;;0.40;0.40;;;22.30;99.90;;;;;;5057565;28;20226;-82
2021/08/24 11:46:07;;;;;;;0.43;0.43;;;22.20;99.90;;;;;;5068508;28;20191;-82
2021/08/24 11:48:42;;;;;;;0.20;0.20;;;22.20;99.90;;;;;;5062891;28;20593;-83
2021/08/24 11:51:27;;;;;;;4.23;1.63;;;21.60;99.90;;;;;;5059738;28;20201;-82
2021/08/24 11:53:56;;;;;;;0.63;0.63;;;21.20;99.90;;;;;;5070046;28;20460;-83
2021/08/24 11:56:45;;;;;;;0.40;0.40;;;21.50;99.90;;;;;;5054015;28;20272;-83
2021/08/24 11:59:24;;;;;;;1.37;0.53;;;21.90;99.90;;;;;;5054247;28;20216;-83
2021/08/24 12:01:51;;;;;;;1.63;0.53;;;21.90;99.90;;;;;;5074358;28;20205;-83
2021/08/24 12:04:27;;;;;;;0.50;0.50;;;21.60;99.90;;;;;;5067577;28;20193;-83
2021/08/24 12:07:00;;;;;;;0.33;0.33;;;21.80;99.90;;;;;;5064214;28;20584;-83
2021/08/24 12:09:46;;;;;;;0.50;0.50;;;21.00;99.90;;;;;;5068564;28;20212;-82
2021/08/24 12:12:37;;;;;;;0.40;0.40;;;20.50;99.90;;;;;;5051783;28;20185;-82
2021/08/24 12:15:31;;;;;;;0.70;0.30;;;20.30;99.90;;;;;;5054160;28;20341;-82
2021/08/24 12:18:29;;;;;;;0.53;0.53;;;20.50;99.90;;;;;;5062626;28;20246;-83
2021/08/24 12:20:59;;;;;;;2.37;1.00;;;20.30;99.90;;;;;;5061819;28;20217;-82
2021/08/24 12:23:42;;;;;;;2.20;0.83;;;20.00;99.90;;;;;;5059798;28;20281;-82
2021/08/24 12:26:28;;;;;;;0.20;0.20;;;20.00;99.90;;;;;;5065540;28;20236;-83
2021/08/24 12:29:02;;;;;;;0.83;0.80;;;20.10;99.90;;;;;;5066486;28;20205;-83
2021/08/24 12:31:45;;;;;;;0.30;0.30;;;19.90;99.90;;;;;;5065384;28;20208;-83
2021/08/24 12:34:34;;;;;;;2.23;0.90;;;20.00;99.90;;;;;;5065521;28;20185;-81
2021/08/24 12:37:19;;;;;;;0.40;0.40;;;20.10;99.90;;;;;;5066651;28;20232;-82
2021/08/24 12:39:56;;;;;;;0.40;0.40;;;20.10;99.90;;;;;;5027999;28;20191;-82
2021/08/24 12:43:02;;;;;;;0.30;0.30;;;19.90;99.90;;;;;;5066299;28;20605;-82
2021/08/24 12:45:30;;;;;;;0.50;0.30;;;19.90;99.90;;;;;;5067684;28;20220;-82
2021/08/24 12:48:10;;;;;;;0.30;0.30;;;20.00;99.90;;;;;;5059439;28;20192;-82
2021/08/24 12:50:35;;;;;;;0.30;0.30;;;20.10;99.90;;;;;;5090908;28;20739;-81
2021/08/24 12:53:44;;;;;;;0.43;0.33;;;20.10;99.90;;;;;;5063524;28;20185;-86
2021/08/24 12:56:32;;;;;;;1.00;0.70;;;19.80;99.90;;;;;;5042155;28;20212;-83
2021/08/24 12:59:01;;;;;;;0.30;0.30;;;19.70;99.90;;;;;;5066637;28;20185;-82
2021/08/24 13:01:27;;;;;;;0.83;0.60;;;19.70;99.90;;;;;;5058334;28;20294;-81
2021/08/24 13:04:14;;;;;;;0.67;0.67;;;19.80;99.90;;;;;;5061085;28;20285;-82
2021/08/24 13:06:46;;;;;;;0.47;0.40;;;20.20;99.90;;;;;;5063036;28;20240;-82
2021/08/24 13:09:30;;;;;;;0.20;0.20;;;20.10;99.90;;;;;;5064851;28;20247;-82
2021/08/24 13:12:15;;;;;;;1.27;0.67;;;19.90;99.90;;;;;;5066150;28;20201;-84
2021/08/24 13:14:57;;;;;;;0.40;0.40;;;19.70;99.90;;;;;;5069324;28;20177;-83
2021/08/24 13:17:46;;;;;;;0.30;0.30;;;19.80;99.90;;;;;;5073575;28;20682;-83
2021/08/24 13:20:38;;;;;;;1.00;0.53;;;20.10;99.90;;;;;;5067803;28;20209;-81